Shawbridge, Canada
Current Conditions -  °F | °C
As of 7:00 PM on Saturday 25 Oct 2014 (Local Time) from CYMX Reporting Station
Rain Showers Rain Showers  
Wind Chill: 54°   Ceiling: 800
Heat Index: 54°   Visibility: 5mi
Dew Point: 50°   Wind: 8mph
Humidity: 88%   Direction: 220°SW
Pressure: 29.44"   Gusts: 18mph
Location:  45.87°N, 74.08°W
Report Text: CYMX 252300Z 22007G16KT 5SM -SHRA BR BKN008 OVC035 12/10 A2944 RMK SF5SC3 SLP973 DENSITY ALT 400FT
Loading
Personal Weather Stations






























Interactive Weather Map
Tropical Storm Tracking
New forecast layout! Learn more

10-Day Weather Forecast

Advertisements
Track Severe Weather on mobile